Time;durP1;ratioP1;P1;durP2;ratioP2;P2;SDS_P1;SDS_P2;PMS_P1;PMS_P2;Temp;Humidity;BMP_temperature;BMP_pressure;BME280_temperature;BME280_humidity;BME280_pressure;Samples;Min_cycle;Max_cycle;Signal;HPM_P1;HPM_P2
2021/01/14 00:01:18;;;;;;;10.20;4.15;;;;;;;-8.69;58.96;98215.22;10457519;28;20057;-50
2021/01/14 00:06:20;;;;;;;7.65;2.90;;;;;;;-8.66;59.33;98219.38;10458608;28;20048;-51
2021/01/14 00:11:23;;;;;;;7.57;2.75;;;;;;;-8.66;59.19;98193.91;10462563;28;20049;-48
2021/01/14 00:16:24;;;;;;;8.40;2.20;;;;;;;-8.67;58.83;98187.16;10457486;28;20049;-50
2021/01/14 00:21:26;;;;;;;5.78;2.03;;;;;;;-8.69;58.51;98158.34;10457047;28;20049;-48
2021/01/14 00:26:29;;;;;;;10.32;3.35;;;;;;;-8.71;57.85;98158.41;10457740;28;20063;-48
2021/01/14 00:31:30;;;;;;;7.03;3.15;;;;;;;-8.74;58.02;98155.09;10456793;28;20084;-49
2021/01/14 00:36:33;;;;;;;7.68;3.17;;;;;;;-8.78;57.92;98158.66;10456951;28;20060;-48
2021/01/14 00:41:38;;;;;;;3.92;1.58;;;;;;;-8.71;58.00;98129.53;10456628;28;20045;-48
2021/01/14 00:46:40;;;;;;;8.10;2.40;;;;;;;-8.70;57.26;98134.59;10469747;28;20044;-49
2021/01/14 00:51:42;;;;;;;11.77;3.97;;;;;;;-8.76;57.57;98127.16;10498034;28;20048;-48
2021/01/14 00:56:44;;;;;;;6.25;2.95;;;;;;;-8.77;57.06;98119.53;10498049;28;20055;-49
2021/01/14 01:01:46;;;;;;;14.05;3.92;;;;;;;-8.75;57.31;98138.16;10505686;28;20393;-49
2021/01/14 01:06:48;;;;;;;9.35;2.47;;;;;;;-8.83;57.33;98118.88;10505892;28;20044;-48
2021/01/14 01:11:50;;;;;;;10.50;4.80;;;;;;;-8.75;57.00;98117.78;10505048;28;20058;-49
2021/01/14 01:16:54;;;;;;;5.60;2.38;;;;;;;-8.79;57.01;98109.44;10504207;28;20254;-49
2021/01/14 01:21:56;;;;;;;7.35;3.15;;;;;;;-8.88;56.80;98097.81;10505204;28;20075;-52
2021/01/14 01:26:58;;;;;;;2.35;1.05;;;;;;;-8.83;57.20;98108.69;10504797;28;20053;-49
2021/01/14 01:32:00;;;;;;;7.03;3.10;;;;;;;-8.79;57.14;98098.41;10504406;28;20496;-50
2021/01/14 01:37:02;;;;;;;7.85;3.50;;;;;;;-8.75;57.10;98085.50;10504012;28;20135;-47
2021/01/14 01:42:04;;;;;;;8.77;3.78;;;;;;;-8.81;56.81;98114.56;10501774;28;20596;-48
2021/01/14 01:47:06;;;;;;;10.25;3.20;;;;;;;-8.87;56.50;98091.84;10503594;28;20086;-50
2021/01/14 01:52:08;;;;;;;22.08;3.83;;;;;;;-8.88;57.54;98061.34;10503911;28;20055;-48
2021/01/14 01:57:11;;;;;;;4.97;2.08;;;;;;;-8.76;57.42;98060.09;10507378;28;20056;-49
2021/01/14 02:02:20;;;;;;;8.85;3.15;;;;;;;-8.66;57.54;98036.81;10503593;28;20066;-49
2021/01/14 02:07:42;;;;;;;6.55;2.22;;;;;;;-8.52;57.51;98031.25;10502837;28;20094;-48
2021/01/14 02:12:57;;;;;;;6.30;2.45;;;;;;;-8.44;57.21;98029.22;10502699;28;20070;-47
2021/01/14 02:17:59;;;;;;;6.90;2.25;;;;;;;-8.46;57.62;98035.31;10503188;28;20055;-48
2021/01/14 02:23:06;;;;;;;6.88;2.15;;;;;;;-8.53;58.60;98037.19;10502768;28;20059;-49
2021/01/14 02:28:09;;;;;;;6.15;2.47;;;;;;;-8.51;58.49;98034.63;10500917;28;20060;-48
2021/01/14 02:33:13;;;;;;;8.40;2.47;;;;;;;-8.53;58.70;98016.81;10501707;28;20420;-48
2021/01/14 02:38:14;;;;;;;6.93;2.58;;;;;;;-8.51;58.05;98022.69;10501678;28;20059;-47
2021/01/14 02:43:17;;;;;;;4.75;2.47;;;;;;;-8.53;58.26;98034.66;10501785;28;20067;-49
2021/01/14 02:48:23;;;;;;;6.78;2.50;;;;;;;-8.53;58.36;98000.72;10501250;28;20396;-48
2021/01/14 02:53:25;;;;;;;5.10;2.20;;;;;;;-8.54;57.57;97999.88;10500754;28;20044;-48
2021/01/14 02:58:28;;;;;;;2.37;1.23;;;;;;;-8.47;57.55;97998.75;10500769;28;20451;-49
2021/01/14 03:03:30;;;;;;;18.23;2.70;;;;;;;-8.34;57.69;98012.72;10445435;28;20140;-49
2021/01/14 03:08:32;;;;;;;8.27;3.08;;;;;;;-8.27;56.65;97981.91;10431879;28;20049;-47
2021/01/14 03:13:34;;;;;;;13.57;4.68;;;;;;;-8.25;56.18;97990.31;10417060;28;20041;-49
2021/01/14 03:18:36;;;;;;;7.75;2.35;;;;;;;-8.28;55.61;97996.38;10423585;28;20040;-49
2021/01/14 03:23:38;;;;;;;3.80;2.03;;;;;;;-8.28;56.12;97980.22;10454259;28;20091;-47
2021/01/14 03:28:41;;;;;;;7.28;2.90;;;;;;;-8.29;55.79;97966.66;10466121;28;20048;-48
2021/01/14 03:33:44;;;;;;;9.82;3.58;;;;;;;-8.29;56.15;97963.28;10457022;28;20385;-48
2021/01/14 03:38:46;;;;;;;;;;;;;;;-8.29;55.83;97953.91;10483341;28;20049;-53
2021/01/14 03:43:49;;;;;;;6.70;2.97;;;;;;;-8.30;55.57;97961.63;10459581;28;19929;-46
2021/01/14 03:48:50;;;;;;;5.30;1.60;;;;;;;-8.23;55.50;97968.16;10455827;28;20053;-48
2021/01/14 03:53:53;;;;;;;9.68;3.38;;;;;;;-8.18;55.79;97958.63;10472476;28;20075;-47
2021/01/14 03:58:55;;;;;;;7.60;2.27;;;;;;;-8.10;55.89;97959.16;10497825;28;20143;-47
2021/01/14 04:03:57;;;;;;;10.30;3.85;;;;;;;-8.07;55.79;97959.03;10478488;28;20045;-49
2021/01/14 04:09:00;;;;;;;4.32;1.65;;;;;;;-7.96;55.95;97951.81;10455901;28;20041;-48
2021/01/14 04:14:02;;;;;;;7.40;2.83;;;;;;;-7.97;55.26;97968.00;10453617;28;20045;-49
2021/01/14 04:19:04;;;;;;;11.40;3.28;;;;;;;-8.00;55.48;97936.72;10452113;28;20052;-48
2021/01/14 04:24:06;;;;;;;10.32;4.22;;;;;;;-7.97;55.56;97929.75;10452103;28;20056;-48
2021/01/14 04:29:09;;;;;;;13.93;5.37;;;;;;;-7.93;54.84;97926.19;10452513;28;20498;-49
2021/01/14 04:34:10;;;;;;;9.02;2.97;;;;;;;-8.00;54.65;97923.94;10460787;28;20299;-50
2021/01/14 04:39:12;;;;;;;9.30;3.30;;;;;;;-8.08;54.33;97911.50;10462526;28;20178;-50
2021/01/14 04:44:15;;;;;;;12.05;3.00;;;;;;;-8.20;54.28;97917.06;10465179;28;20099;-48
2021/01/14 04:49:17;;;;;;;10.07;4.70;;;;;;;-8.23;54.66;97906.97;10477109;28;20044;-49
2021/01/14 04:54:23;;;;;;;6.63;1.73;;;;;;;-8.29;54.60;97892.75;10505421;28;20040;-51
2021/01/14 04:59:28;;;;;;;7.82;3.28;;;;;;;-8.30;54.39;97893.63;10506325;28;20377;-49
2021/01/14 05:04:31;;;;;;;8.88;2.35;;;;;;;-8.35;54.27;97904.00;10505625;28;20036;-49
2021/01/14 05:09:39;;;;;;;7.68;3.63;;;;;;;-8.39;54.51;97897.41;10504938;28;20049;-49
2021/01/14 05:14:42;;;;;;;6.72;2.58;;;;;;;-8.41;54.19;97891.50;10505207;28;20036;-47
2021/01/14 05:19:44;;;;;;;4.55;1.98;;;;;;;-8.39;53.90;97892.28;10504500;28;20113;-50
2021/01/14 05:25:04;;;;;;;10.85;3.72;;;;;;;-8.37;53.71;97885.41;10506884;28;20366;-50
2021/01/14 05:30:09;;;;;;;9.73;3.50;;;;;;;-8.37;53.82;97884.56;10473930;28;20094;-49
2021/01/14 05:35:12;;;;;;;10.50;5.32;;;;;;;-8.38;53.44;97878.63;10462149;28;20386;-47
2021/01/14 05:40:14;;;;;;;;;;;;;;;-8.40;53.19;97875.34;10463262;28;20075;-48
2021/01/14 05:45:23;;;;;;;2.45;1.10;;;;;;;-8.38;53.42;97865.88;10462642;28;19982;-49
2021/01/14 05:50:29;;;;;;;8.73;3.97;;;;;;;-8.35;53.08;97875.97;10488800;28;20044;-49
2021/01/14 05:55:32;;;;;;;6.18;2.90;;;;;;;-8.36;53.04;97869.22;10504810;28;20515;-47
2021/01/14 06:00:35;;;;;;;8.93;3.85;;;;;;;-8.34;53.30;97852.16;10503272;28;20060;-48
2021/01/14 06:05:37;;;;;;;5.82;2.78;;;;;;;-8.30;53.39;97859.69;10503022;28;20068;-47
2021/01/14 06:10:41;;;;;;;5.68;1.92;;;;;;;-8.27;53.74;97854.47;10503171;28;20048;-49
2021/01/14 06:15:44;;;;;;;8.07;2.47;;;;;;;-8.27;53.42;97869.75;10503191;28;20064;-50
2021/01/14 06:20:52;;;;;;;8.73;2.47;;;;;;;-8.26;53.41;97856.94;10502141;28;20048;-50
2021/01/14 06:25:56;;;;;;;7.10;2.35;;;;;;;-8.25;53.14;97852.66;10502242;28;20053;-49
2021/01/14 06:31:01;;;;;;;7.80;2.72;;;;;;;-8.20;53.47;97841.41;10502772;28;20135;-50
2021/01/14 06:36:06;;;;;;;2.95;1.75;;;;;;;-8.18;52.94;97869.41;10502007;28;20109;-49
2021/01/14 06:41:18;;;;;;;11.75;3.92;;;;;;;-8.23;52.54;97864.47;10502119;28;20044;-47
2021/01/14 06:46:22;;;;;;;11.45;4.75;;;;;;;-8.27;52.87;97885.88;10501796;28;20045;-50
2021/01/14 06:51:31;;;;;;;11.90;3.97;;;;;;;-8.29;53.20;97876.63;10501919;28;20041;-48
2021/01/14 06:56:46;;;;;;;17.45;5.13;;;;;;;-8.25;53.51;97875.59;10500433;28;20048;-50
2021/01/14 07:02:07;;;;;;;12.02;5.85;;;;;;;-8.18;52.96;97880.44;10501540;28;20061;-49
2021/01/14 07:07:31;;;;;;;9.27;4.18;;;;;;;-8.17;52.87;97876.97;10501016;28;20044;-52
2021/01/14 07:12:34;;;;;;;10.73;4.37;;;;;;;-8.07;53.38;97862.13;10500571;28;20044;-48
2021/01/14 07:17:39;;;;;;;9.30;3.28;;;;;;;-8.05;52.87;97854.44;10500568;28;20044;-54
2021/01/14 07:22:47;;;;;;;5.63;2.65;;;;;;;-8.02;53.26;97860.25;10505921;28;20052;-55
2021/01/14 07:27:50;;;;;;;11.40;3.70;;;;;;;-8.04;53.21;97851.81;10500218;28;20048;-49
2021/01/14 07:32:58;;;;;;;5.82;1.90;;;;;;;-8.04;53.09;97864.56;10499870;28;20040;-49
2021/01/14 07:38:00;;;;;;;15.35;6.38;;;;;;;-8.05;52.67;97841.69;10500255;28;20056;-49
2021/01/14 07:43:04;;;;;;;2.15;1.52;;;;;;;-7.99;53.17;97860.13;10498922;28;20061;-48
2021/01/14 07:48:23;;;;;;;3.70;1.88;;;;;;;-7.94;53.06;97853.13;10500147;28;20060;-49
2021/01/14 07:53:26;;;;;;;13.13;3.10;;;;;;;-7.91;53.01;97855.56;10499625;28;20044;-49
2021/01/14 07:58:29;;;;;;;4.57;1.70;;;;;;;-7.85;53.38;97853.63;10499655;28;20143;-49
2021/01/14 08:03:33;;;;;;;9.93;3.97;;;;;;;-7.78;53.68;97832.94;10499497;28;20052;-47
2021/01/14 08:08:36;;;;;;;17.25;4.22;;;;;;;-7.59;53.66;97833.00;10504362;28;20054;-48
2021/01/14 08:14:03;;;;;;;7.90;3.03;;;;;;;-7.38;54.15;97825.31;10507602;28;20048;-48
2021/01/14 08:19:23;;;;;;;7.03;2.63;;;;;;;-7.35;53.25;97825.19;10506194;28;20431;-51
2021/01/14 08:24:39;;;;;;;12.27;3.67;;;;;;;-7.35;53.46;97837.97;10508474;28;20044;-50
2021/01/14 08:29:50;;;;;;;11.50;4.43;;;;;;;-7.36;53.24;97838.84;10508474;28;20056;-51
2021/01/14 08:34:54;;;;;;;11.30;3.67;;;;;;;-7.36;53.37;97833.72;10509800;28;20055;-48
2021/01/14 08:45:20;;;;;;;14.13;4.30;;;;;;;-7.41;52.73;97847.53;10507569;28;20054;-48
2021/01/14 08:50:38;;;;;;;9.35;3.67;;;;;;;-7.41;52.91;97850.06;10505918;28;20391;-49
2021/01/14 08:55:40;;;;;;;13.82;5.00;;;;;;;-7.35;52.64;97840.50;10505980;28;20048;-47
2021/01/14 09:00:48;;;;;;;17.40;5.50;;;;;;;-7.31;53.30;97836.94;10505722;28;20052;-49
2021/01/14 09:05:51;;;;;;;13.75;5.45;;;;;;;-7.28;52.85;97829.97;10505324;28;20044;-47
2021/01/14 09:10:54;;;;;;;13.13;6.10;;;;;;;-7.13;52.93;97840.41;10505921;28;20049;-47
2021/01/14 09:15:57;;;;;;;6.00;3.13;;;;;;;-7.08;52.86;97846.97;10505807;28;20452;-54
2021/01/14 09:21:01;;;;;;;12.57;4.18;;;;;;;-7.10;53.21;97825.78;10505321;28;20094;-48
2021/01/14 09:26:05;;;;;;;15.65;4.72;;;;;;;-7.00;53.59;97842.34;10505256;28;20044;-50
2021/01/14 09:31:08;;;;;;;11.85;4.68;;;;;;;-6.96;52.92;97820.91;10504173;28;20054;-49
2021/01/14 09:36:12;;;;;;;10.00;4.35;;;;;;;-6.89;53.08;97824.00;10505159;28;20048;-49
2021/01/14 09:41:23;;;;;;;16.23;5.38;;;;;;;-6.95;53.15;97827.66;10504261;28;20048;-49
2021/01/14 09:46:27;;;;;;;11.00;3.65;;;;;;;-6.97;52.66;97811.56;10504220;28;20055;-50
2021/01/14 09:51:30;;;;;;;11.88;4.88;;;;;;;-7.06;52.28;97840.06;10504861;28;20041;-48
2021/01/14 09:56:34;;;;;;;7.55;2.95;;;;;;;-7.16;51.72;97849.03;10503547;28;20044;-49
2021/01/14 10:01:40;;;;;;;10.32;4.03;;;;;;;-7.19;52.16;97833.84;10504345;28;20060;-48
2021/01/14 10:06:47;;;;;;;12.27;4.55;;;;;;;-7.12;52.32;97827.56;10504224;28;20339;-50
2021/01/14 10:11:51;;;;;;;9.18;3.15;;;;;;;-7.07;52.29;97814.59;10503070;28;20056;-47
2021/01/14 10:16:53;;;;;;;6.78;2.97;;;;;;;-7.06;52.52;97818.81;10501723;28;20481;-47
2021/01/14 10:22:05;;;;;;;11.43;5.07;;;;;;;-7.08;52.52;97818.88;10502583;28;20137;-48
2021/01/14 10:27:26;;;;;;;10.95;4.85;;;;;;;-7.02;52.59;97822.88;10503236;28;20044;-48
2021/01/14 10:32:47;;;;;;;13.85;3.65;;;;;;;-7.01;52.43;97807.50;10503555;28;20052;-49
2021/01/14 10:38:01;;;;;;;12.27;5.20;;;;;;;-6.97;52.18;97809.00;10502790;28;20049;-50
2021/01/14 10:43:04;;;;;;;12.60;4.63;;;;;;;-6.91;52.59;97814.75;10502197;28;20193;-48
2021/01/14 10:48:12;;;;;;;13.95;5.90;;;;;;;-6.90;52.21;97808.72;10502155;28;20131;-49
2021/01/14 10:53:24;;;;;;;16.85;6.38;;;;;;;-6.91;52.26;97818.13;10501696;28;20047;-47
2021/01/14 10:58:26;;;;;;;17.40;6.45;;;;;;;-6.92;52.18;97810.56;10501777;28;20048;-50
2021/01/14 11:03:29;;;;;;;18.65;6.75;;;;;;;-6.94;52.61;97795.28;10501681;28;20139;-49
2021/01/14 11:08:39;;;;;;;;;;;;;;;-6.97;52.29;97809.00;10500705;28;20055;-49
2021/01/14 11:13:45;;;;;;;17.63;7.60;;;;;;;-7.08;52.13;97807.81;10500615;28;19925;-48
2021/01/14 11:18:48;;;;;;;14.02;6.22;;;;;;;-7.04;52.72;97799.97;10502201;28;20052;-59
2021/01/14 11:23:51;;;;;;;20.65;6.68;;;;;;;-7.01;52.39;97799.84;10502606;28;20389;-50
2021/01/14 11:28:53;;;;;;;10.85;4.85;;;;;;;-6.98;52.80;97802.25;10499701;28;20489;-50
2021/01/14 11:33:55;;;;;;;21.25;6.25;;;;;;;-6.94;52.37;97810.59;10499731;28;20059;-49
2021/01/14 11:38:58;;;;;;;12.40;4.65;;;;;;;-6.90;52.65;97806.19;10499790;28;20051;-49
2021/01/14 11:43:59;;;;;;;19.05;6.93;;;;;;;-6.89;52.35;97803.56;10499348;28;20044;-47
2021/01/14 11:49:01;;;;;;;13.82;5.88;;;;;;;-6.87;51.88;97806.88;10499208;28;20366;-49
2021/01/14 11:54:04;;;;;;;20.75;8.60;;;;;;;-6.85;51.79;97815.28;10499545;28;20041;-48
2021/01/14 11:59:06;;;;;;;14.80;6.65;;;;;;;-6.84;52.36;97831.44;10499235;28;20054;-49
2021/01/14 12:04:07;;;;;;;19.85;7.13;;;;;;;-6.78;52.49;97841.41;10498581;28;20049;-49
2021/01/14 12:09:10;;;;;;;17.10;7.72;;;;;;;-6.75;52.19;97841.25;10498309;28;20071;-49
2021/01/14 12:14:12;;;;;;;13.00;4.78;;;;;;;-6.76;51.92;97844.72;10497736;28;20370;-49
2021/01/14 12:19:13;;;;;;;14.32;6.30;;;;;;;-6.69;52.51;97847.81;10498488;28;20488;-48
2021/01/14 12:24:18;;;;;;;14.88;5.30;;;;;;;-6.65;52.28;97837.41;10498522;28;20052;-49
2021/01/14 12:29:19;;;;;;;18.65;6.85;;;;;;;-6.70;52.40;97841.06;10498179;28;20135;-47
2021/01/14 12:34:21;;;;;;;11.25;5.63;;;;;;;-6.78;52.53;97831.19;10499415;28;20048;-54
2021/01/14 12:39:24;;;;;;;12.07;4.95;;;;;;;-6.85;51.72;97834.91;10500115;28;20139;-52
2021/01/14 12:44:26;;;;;;;20.88;6.40;;;;;;;-6.90;51.79;97827.44;10498739;28;20140;-51
2021/01/14 12:49:28;;;;;;;11.50;3.25;;;;;;;-6.96;51.74;97825.16;10499305;28;20393;-51
2021/01/14 12:54:30;;;;;;;12.05;4.00;;;;;;;-6.98;52.13;97824.41;10500423;28;20430;-47
2021/01/14 12:59:32;;;;;;;7.47;2.58;;;;;;;-7.01;52.38;97825.38;10505884;28;20059;-49
2021/01/14 13:04:34;;;;;;;20.92;5.40;;;;;;;-6.98;52.85;97832.06;10506902;28;20055;-47
2021/01/14 13:09:36;;;;;;;11.60;4.55;;;;;;;-7.02;52.44;97844.16;10508465;28;20058;-55
2021/01/14 13:14:38;;;;;;;9.23;3.28;;;;;;;-7.11;52.61;97865.00;10505186;28;20135;-49
2021/01/14 13:19:40;;;;;;;16.38;4.82;;;;;;;-7.15;52.34;97860.88;10504701;28;20489;-49
2021/01/14 13:24:42;;;;;;;17.35;6.38;;;;;;;-7.20;51.77;97857.72;10505068;28;20055;-49
2021/01/14 13:29:44;;;;;;;18.88;5.85;;;;;;;-7.23;52.01;97871.44;10504591;28;20044;-48
2021/01/14 13:34:46;;;;;;;9.70;3.13;;;;;;;-7.23;52.32;97860.41;10504308;28;20428;-50
2021/01/14 13:39:48;;;;;;;18.60;7.43;;;;;;;-7.23;52.48;97875.72;10504353;28;20058;-49
2021/01/14 13:44:50;;;;;;;16.27;5.72;;;;;;;-7.29;51.61;97878.53;10503849;28;20044;-48
2021/01/14 13:49:52;;;;;;;11.52;4.75;;;;;;;-7.39;51.97;97872.16;10503860;28;20040;-50
2021/01/14 13:54:54;;;;;;;13.02;5.72;;;;;;;-7.49;51.87;97885.28;10504305;28;20059;-49
2021/01/14 13:59:56;;;;;;;15.25;5.05;;;;;;;-7.58;51.99;97885.69;10503896;28;20121;-50
2021/01/14 14:04:58;;;;;;;18.65;4.82;;;;;;;-7.64;52.10;97885.94;10502995;28;20058;-49
2021/01/14 14:10:00;;;;;;;7.93;2.95;;;;;;;-7.63;52.71;97882.50;10502446;28;20072;-49
2021/01/14 14:15:02;;;;;;;15.10;5.55;;;;;;;-7.58;52.37;97888.22;10503492;28;20477;-50
2021/01/14 14:20:04;;;;;;;13.50;4.50;;;;;;;-7.52;52.73;97882.88;10502498;28;20437;-47
2021/01/14 14:25:09;;;;;;;10.20;3.90;;;;;;;-7.50;52.20;97883.66;10502532;28;20048;-47
2021/01/14 14:30:12;;;;;;;12.30;4.97;;;;;;;-7.52;52.82;97889.69;10502590;28;20781;-49
2021/01/14 14:35:14;;;;;;;11.70;5.72;;;;;;;-7.52;52.82;97887.16;10501754;28;20059;-49
2021/01/14 14:40:17;;;;;;;9.43;3.25;;;;;;;-7.56;52.50;97885.63;10502450;28;20063;-49
2021/01/14 14:45:20;;;;;;;16.08;5.13;;;;;;;-7.60;52.45;97884.06;10501778;28;20044;-53
2021/01/14 14:50:22;;;;;;;16.23;5.18;;;;;;;-7.64;52.64;97891.84;10501667;28;20040;-49
2021/01/14 14:55:28;;;;;;;14.88;5.13;;;;;;;-7.60;52.81;97899.38;10500483;28;20496;-50
2021/01/14 15:00:30;;;;;;;14.27;7.43;;;;;;;-7.58;52.42;97900.97;10500926;28;20393;-47
2021/01/14 15:05:32;;;;;;;16.70;6.35;;;;;;;-7.57;52.33;97892.47;10500640;28;20135;-49
2021/01/14 15:10:34;;;;;;;14.85;5.43;;;;;;;-7.49;52.64;97894.69;10501909;28;20057;-50
2021/01/14 15:15:36;;;;;;;12.52;5.07;;;;;;;-7.44;52.67;97898.69;10499700;28;20070;-48
2021/01/14 15:20:38;;;;;;;16.42;6.32;;;;;;;-7.38;51.77;97904.47;10500681;28;20114;-48
2021/01/14 15:25:40;;;;;;;10.80;4.03;;;;;;;-7.36;51.75;97900.09;10501183;28;20101;-48
2021/01/14 15:30:42;;;;;;;14.05;4.93;;;;;;;-7.44;51.33;97908.91;10499552;28;20135;-49
2021/01/14 15:35:44;;;;;;;11.50;4.95;;;;;;;-7.46;51.37;97905.59;10497944;28;20603;-48
2021/01/14 15:40:47;;;;;;;20.95;7.30;;;;;;;-7.49;51.27;97892.13;10499857;28;20079;-49
2021/01/14 15:45:49;;;;;;;13.13;5.32;;;;;;;-7.51;51.25;97906.66;10499274;28;20056;-48
2021/01/14 15:50:51;;;;;;;17.60;6.13;;;;;;;-7.52;51.79;97895.63;10456559;28;20489;-48
2021/01/14 15:55:54;;;;;;;11.65;4.47;;;;;;;-7.49;52.25;97890.41;10453023;28;20255;-47
2021/01/14 16:00:55;;;;;;;12.55;5.55;;;;;;;-7.39;52.10;97895.13;10443790;28;20138;-48
2021/01/14 16:06:01;;;;;;;17.75;7.55;;;;;;;-7.26;52.29;97888.63;10461003;28;20136;-49
2021/01/14 16:11:04;;;;;;;16.63;4.20;;;;;;;-7.30;51.85;97889.63;10455880;28;20045;-49
2021/01/14 16:16:06;;;;;;;11.32;4.97;;;;;;;-7.35;52.55;97892.38;10455871;28;20041;-49
2021/01/14 16:21:07;;;;;;;15.20;5.60;;;;;;;-7.30;52.15;97898.13;10462697;28;20147;-49
2021/01/14 16:26:10;;;;;;;18.45;7.63;;;;;;;-7.25;51.83;97895.38;10496488;28;20446;-47
2021/01/14 16:31:12;;;;;;;16.63;5.53;;;;;;;-7.22;51.67;97900.34;10494014;28;20690;-48
2021/01/14 16:36:14;;;;;;;13.70;5.30;;;;;;;-7.18;51.62;97909.53;10463968;28;20136;-48
2021/01/14 16:41:22;;;;;;;20.23;7.30;;;;;;;-7.17;51.75;97906.13;10463928;28;20053;-49
2021/01/14 16:46:26;;;;;;;12.32;4.75;;;;;;;-7.17;51.74;97911.22;10463433;28;20068;-48
2021/01/14 16:51:27;;;;;;;11.20;5.50;;;;;;;-7.18;51.35;97901.88;10460863;28;20049;-48
2021/01/14 16:56:30;;;;;;;19.23;6.78;;;;;;;-7.29;52.17;97909.19;10461605;28;20049;-49
2021/01/14 17:01:32;;;;;;;12.95;5.13;;;;;;;-7.27;52.45;97912.47;10461915;28;20064;-48
2021/01/14 17:06:35;;;;;;;15.30;4.88;;;;;;;-7.23;52.69;97899.53;10462140;28;20090;-50
2021/01/14 17:11:41;;;;;;;;;;;;;;;-7.24;52.69;97897.03;10461994;28;20512;-54
2021/01/14 17:16:49;;;;;;;10.65;4.78;;;;;;;-7.23;52.32;97902.09;10463367;28;19924;-50
2021/01/14 17:21:54;;;;;;;17.48;5.93;;;;;;;-7.19;52.52;97902.78;10461128;28;20065;-49
2021/01/14 17:26:56;;;;;;;18.55;6.47;;;;;;;-7.13;52.13;97909.34;10457781;28;20143;-48
2021/01/14 17:32:00;;;;;;;14.98;6.20;;;;;;;-7.08;51.75;97912.53;10461595;28;20493;-49
2021/01/14 17:37:02;;;;;;;14.73;6.07;;;;;;;-7.08;51.93;97908.28;10461801;28;20049;-48
2021/01/14 17:42:05;;;;;;;20.23;6.93;;;;;;;-7.09;51.38;97909.16;10458917;28;20053;-48
2021/01/14 17:47:07;;;;;;;;;;;;;;;-7.01;51.95;97908.84;10461637;28;20144;-49
2021/01/14 17:52:09;;;;;;;10.75;4.18;;;;;;;-7.03;51.79;97905.50;10458631;28;20255;-50
2021/01/14 17:57:11;;;;;;;20.90;6.40;;;;;;;-7.00;52.22;97906.19;10484129;28;20499;-47
2021/01/14 18:02:13;;;;;;;16.30;4.47;;;;;;;-6.97;51.98;97882.25;10502877;28;20151;-48
2021/01/14 18:07:15;;;;;;;19.00;6.43;;;;;;;-6.93;52.86;97885.50;10471532;28;20049;-47
2021/01/14 18:12:17;;;;;;;14.13;4.63;;;;;;;-6.89;52.94;97874.28;10460031;28;20045;-47
2021/01/14 18:17:19;;;;;;;14.20;5.22;;;;;;;-6.86;53.41;97880.06;10460275;28;20141;-49
2021/01/14 18:22:21;;;;;;;12.98;5.80;;;;;;;-6.90;52.27;97882.81;10459935;28;20041;-50
2021/01/14 18:27:23;;;;;;;16.55;5.95;;;;;;;-7.02;51.98;97889.28;10458353;28;20049;-49
2021/01/14 18:32:25;;;;;;;18.67;7.93;;;;;;;-7.13;51.72;97892.31;10452264;28;20051;-47
2021/01/14 18:37:26;;;;;;;18.50;5.43;;;;;;;-7.22;51.93;97890.97;10457144;28;20064;-49
2021/01/14 18:42:29;;;;;;;13.63;6.22;;;;;;;-7.20;51.71;97896.03;10455971;28;20045;-47
2021/01/14 18:47:34;;;;;;;13.63;5.50;;;;;;;-7.09;52.47;97896.38;10457028;28;20048;-50
2021/01/14 18:52:39;;;;;;;17.05;7.13;;;;;;;-6.96;51.87;97915.41;10455630;28;20299;-49
2021/01/14 18:57:42;;;;;;;17.10;5.35;;;;;;;-6.99;51.85;97918.09;10458187;28;20218;-46
2021/01/14 19:02:44;;;;;;;14.27;5.00;;;;;;;-6.95;51.76;97914.50;10459368;28;20053;-57
2021/01/14 19:07:48;;;;;;;20.57;7.00;;;;;;;-6.98;51.96;97922.31;10460183;28;20421;-48
2021/01/14 19:12:51;;;;;;;17.73;7.25;;;;;;;-7.01;51.81;97932.66;10455408;28;20049;-50
2021/01/14 19:17:53;;;;;;;21.88;9.02;;;;;;;-7.06;51.99;97949.06;10457400;28;20055;-50
2021/01/14 19:22:55;;;;;;;19.88;6.13;;;;;;;-7.10;51.98;97963.69;10457059;28;20363;-48
2021/01/14 19:27:58;;;;;;;15.13;7.22;;;;;;;-7.02;51.89;97961.66;10454629;28;20102;-49
2021/01/14 19:33:00;;;;;;;15.20;6.32;;;;;;;-7.01;52.07;97975.25;10456567;28;20049;-47
2021/01/14 19:38:01;;;;;;;18.00;6.25;;;;;;;-6.96;51.82;97980.97;10457342;28;20390;-49
2021/01/14 19:43:04;;;;;;;22.23;7.25;;;;;;;-6.98;51.78;97986.16;10454908;28;20052;-47
2021/01/14 19:48:06;;;;;;;16.83;6.90;;;;;;;-7.00;51.75;97979.44;10458056;28;20053;-55
2021/01/14 19:53:08;;;;;;;11.18;5.80;;;;;;;-6.90;52.20;97982.44;10458673;28;20171;-48
2021/01/14 19:58:11;;;;;;;14.88;5.75;;;;;;;-6.79;52.55;97977.72;10488193;28;20052;-49
2021/01/14 20:03:12;;;;;;;14.83;6.43;;;;;;;-6.66;52.06;97981.41;10496654;28;20850;-48
2021/01/14 20:08:14;;;;;;;14.98;6.20;;;;;;;-6.62;51.90;97985.50;10491337;28;20401;-48
2021/01/14 20:13:17;;;;;;;25.48;6.80;;;;;;;-6.61;52.12;97982.03;10456047;28;20041;-48
2021/01/14 20:18:19;;;;;;;18.60;7.07;;;;;;;-6.55;52.04;97981.78;10455035;28;20156;-48
2021/01/14 20:23:22;;;;;;;15.57;6.05;;;;;;;-6.55;51.60;97984.31;10454633;28;20458;-48
2021/01/14 20:28:24;;;;;;;21.70;8.55;;;;;;;-6.63;51.20;97983.81;10453213;28;20053;-48
2021/01/14 20:33:26;;;;;;;17.48;6.75;;;;;;;-6.67;51.61;97995.09;10451259;28;20048;-47
2021/01/14 20:38:28;;;;;;;17.42;6.43;;;;;;;-6.67;51.86;98000.19;10450120;28;20139;-48
2021/01/14 20:43:30;;;;;;;16.70;6.88;;;;;;;-6.64;51.93;97992.41;10455829;28;20053;-48
2021/01/14 20:48:32;;;;;;;16.52;6.28;;;;;;;-6.56;52.04;97979.28;10455426;28;20060;-49
2021/01/14 20:53:34;;;;;;;25.38;8.50;;;;;;;-6.56;51.67;97972.44;10486934;28;20508;-49
2021/01/14 20:58:36;;;;;;;15.85;6.00;;;;;;;-6.52;52.07;97963.75;10489487;28;20044;-50
2021/01/14 21:03:38;;;;;;;14.80;6.23;;;;;;;-6.49;52.54;97961.06;10498312;28;20048;-48
2021/01/14 21:08:40;;;;;;;17.45;6.45;;;;;;;-6.36;52.64;97969.00;10456894;28;20148;-48
2021/01/14 21:13:42;;;;;;;16.88;6.25;;;;;;;-6.23;52.57;97974.41;10452389;28;20106;-48
2021/01/14 21:18:45;;;;;;;13.63;5.77;;;;;;;-6.28;52.54;97982.28;10437072;28;20045;-47
2021/01/14 21:23:46;;;;;;;19.02;6.10;;;;;;;-6.23;52.96;97982.06;10461794;28;20052;-49
2021/01/14 21:28:49;;;;;;;16.20;5.82;;;;;;;-6.13;52.79;97980.75;10463365;28;20052;-50
2021/01/14 21:33:51;;;;;;;20.13;6.68;;;;;;;-6.13;52.76;97996.09;10462656;28;20107;-47
2021/01/14 21:38:54;;;;;;;17.83;6.38;;;;;;;-6.03;52.63;97983.75;10462525;28;20130;-49
2021/01/14 21:43:56;;;;;;;12.93;5.13;;;;;;;-5.92;52.25;98003.66;10462819;28;20067;-50
2021/01/14 21:48:58;;;;;;;16.97;5.27;;;;;;;-5.92;52.00;98016.47;10461194;28;20053;-50
2021/01/14 21:54:00;;;;;;;17.70;5.85;;;;;;;-5.92;52.08;98026.69;10461620;28;20306;-50
2021/01/14 21:59:04;;;;;;;14.98;5.63;;;;;;;-5.87;52.19;98022.22;10500084;28;20499;-49
2021/01/14 22:04:05;;;;;;;18.83;5.30;;;;;;;-5.82;52.11;98008.31;10501693;28;20067;-49
2021/01/14 22:09:07;;;;;;;18.10;6.57;;;;;;;-5.89;52.13;98014.59;10476347;28;20061;-49
2021/01/14 22:14:10;;;;;;;18.40;6.28;;;;;;;-5.87;52.10;98019.66;10458900;28;20553;-48
2021/01/14 22:19:12;;;;;;;16.35;6.68;;;;;;;-5.86;52.18;98011.06;10460478;28;20051;-52
2021/01/14 22:24:13;;;;;;;17.02;5.85;;;;;;;-5.91;51.66;97997.66;10459353;28;20067;-48
2021/01/14 22:29:16;;;;;;;12.38;5.78;;;;;;;-5.93;51.58;97995.22;10454957;28;20056;-49
2021/01/14 22:34:20;;;;;;;17.17;5.63;;;;;;;-6.00;51.57;98008.31;10457688;28;20045;-49
2021/01/14 22:39:23;;;;;;;11.13;4.25;;;;;;;-6.04;51.58;98008.47;10459689;28;20295;-50
2021/01/14 22:44:27;;;;;;;16.13;5.93;;;;;;;-6.16;52.01;98009.00;10462091;28;20064;-55
2021/01/14 22:49:29;;;;;;;12.95;4.93;;;;;;;-6.23;51.70;98012.75;10459596;28;20049;-50
2021/01/14 22:54:31;;;;;;;13.07;5.38;;;;;;;-6.26;51.64;98013.72;10461374;28;20500;-52
2021/01/14 22:59:33;;;;;;;13.68;5.32;;;;;;;-6.21;51.95;98020.38;10502063;28;20060;-50
2021/01/14 23:04:35;;;;;;;12.00;4.20;;;;;;;-6.16;51.82;98024.38;10501188;28;20051;-50
2021/01/14 23:09:37;;;;;;;13.48;5.03;;;;;;;-6.12;51.43;98023.34;10471421;28;20052;-49
2021/01/14 23:14:39;;;;;;;12.45;4.47;;;;;;;-6.10;51.73;98034.31;10458423;28;20055;-50
2021/01/14 23:19:41;;;;;;;10.63;4.17;;;;;;;-6.03;51.78;98038.28;10458494;28;20059;-48
2021/01/14 23:24:42;;;;;;;16.27;5.72;;;;;;;-5.94;51.75;98038.75;10460122;28;20049;-49
2021/01/14 23:29:45;;;;;;;15.43;5.50;;;;;;;-5.89;51.67;98026.56;10457638;28;20053;-48